FDX18 VIDP-VOBL
Flight info
| Callsign | FDX18 |
|---|---|
| Flight time | 2h 5m |
| Altitude | 38000 |
| Route | AKRIB7G AKRIB W19 IKAVA/N0483F370 W19 BPL/N0418F250 J3 HIA/N0478F370 Q21 LURGI/N0478F380 Q21 TELUV TELUV7F |
| Aircraft | B77W/H-SDE1E2E3FGHIJ2J3J4J5M1RWXY/LB1D1 |
Departure
| Time | 2026-04-29 09:05 |
|---|---|
| Airport | Indira Gandhi International Airport (VIDP) |
Arrival
| Time | 2026-04-29 11:10 |
|---|---|
| Airport | Kempegowda International Airport Bengaluru (VOBL) |
| Time | Latitude | Longitude | Altitude | Speed | Heading |
|---|---|---|---|---|---|
| 2026-04-29 08:41 | 28.56328 | 77.08540 | 737 ft | 0 kts | 15° |
| 2026-04-29 08:50 | 28.56323 | 77.08538 | 736 ft | 2 kts | 13° |
| 2026-04-29 08:50 | 28.56307 | 77.08534 | 735 ft | 2 kts | 10° |
| 2026-04-29 08:51 | 28.56290 | 77.08531 | 735 ft | 2 kts | 5° |
| 2026-04-29 08:51 | 28.56274 | 77.08531 | 736 ft | 2 kts | 355° |
| 2026-04-29 08:51 | 28.56258 | 77.08534 | 735 ft | 2 kts | 337° |
| 2026-04-29 08:51 | 28.56244 | 77.08543 | 736 ft | 2 kts | 305° |
| 2026-04-29 08:52 | 28.56238 | 77.08557 | 735 ft | 1 kts | 286° |
| 2026-04-29 08:52 | 28.56237 | 77.08559 | 735 ft | 0 kts | 285° |
| 2026-04-29 08:54 | 28.56237 | 77.08558 | 738 ft | 1 kts | 285° |
| 2026-04-29 08:54 | 28.56252 | 77.08497 | 737 ft | 13 kts | 285° |
| 2026-04-29 08:54 | 28.56254 | 77.08490 | 737 ft | 0 kts | 285° |
| 2026-04-29 08:56 | 28.56271 | 77.08417 | 738 ft | 17 kts | 284° |
| 2026-04-29 08:57 | 28.56304 | 77.08270 | 736 ft | 22 kts | 285° |
| 2026-04-29 08:57 | 28.56340 | 77.08113 | 736 ft | 14 kts | 285° |
| 2026-04-29 08:57 | 28.56348 | 77.08001 | 735 ft | 12 kts | 241° |
| 2026-04-29 08:57 | 28.56275 | 77.07962 | 736 ft | 12 kts | 195° |
| 2026-04-29 08:58 | 28.56197 | 77.07939 | 738 ft | 12 kts | 194° |
| 2026-04-29 08:58 | 28.56118 | 77.07917 | 738 ft | 12 kts | 193° |
| 2026-04-29 08:58 | 28.56038 | 77.07894 | 737 ft | 12 kts | 194° |
| 2026-04-29 08:58 | 28.55958 | 77.07870 | 738 ft | 12 kts | 198° |
| 2026-04-29 08:59 | 28.55880 | 77.07843 | 739 ft | 12 kts | 195° |
| 2026-04-29 08:59 | 28.55801 | 77.07819 | 740 ft | 12 kts | 194° |
| 2026-04-29 08:59 | 28.55722 | 77.07796 | 740 ft | 12 kts | 193° |
| 2026-04-29 08:59 | 28.55643 | 77.07773 | 740 ft | 12 kts | 197° |
| 2026-04-29 09:00 | 28.55564 | 77.07748 | 740 ft | 12 kts | 194° |
| 2026-04-29 09:00 | 28.55485 | 77.07725 | 741 ft | 12 kts | 194° |
| 2026-04-29 09:00 | 28.55405 | 77.07702 | 740 ft | 12 kts | 194° |
| 2026-04-29 09:00 | 28.55326 | 77.07679 | 741 ft | 12 kts | 195° |
| 2026-04-29 09:01 | 28.55246 | 77.07657 | 741 ft | 12 kts | 194° |
| 2026-04-29 09:01 | 28.55178 | 77.07613 | 741 ft | 12 kts | 247° |
| 2026-04-29 09:01 | 28.55189 | 77.07517 | 742 ft | 13 kts | 283° |
| 2026-04-29 09:01 | 28.55211 | 77.07415 | 740 ft | 14 kts | 284° |
| 2026-04-29 09:02 | 28.55226 | 77.07345 | 740 ft | 14 kts | 284° |
| 2026-04-29 09:02 | 28.55252 | 77.07236 | 739 ft | 15 kts | 286° |
| 2026-04-29 09:02 | 28.55287 | 77.07084 | 737 ft | 15 kts | 284° |
| 2026-04-29 09:02 | 28.55314 | 77.06969 | 736 ft | 15 kts | 282° |
| 2026-04-29 09:03 | 28.55272 | 77.06906 | 737 ft | 11 kts | 201° |
| 2026-04-29 09:03 | 28.55222 | 77.06890 | 737 ft | 11 kts | 194° |
| 2026-04-29 09:03 | 28.55117 | 77.06860 | 735 ft | 12 kts | 193° |
| 2026-04-29 09:03 | 28.55057 | 77.06845 | 734 ft | 13 kts | 190° |
| 2026-04-29 09:04 | 28.55001 | 77.06883 | 736 ft | 8 kts | 110° |
| 2026-04-29 09:04 | 28.55000 | 77.06888 | 734 ft | 0 kts | 107° |
| 2026-04-29 09:04 | 28.55000 | 77.06889 | 735 ft | 4 kts | 107° |
| 2026-04-29 09:05 | 28.54900 | 77.07349 | 741 ft | 114 kts | 103° |
| 2026-04-29 09:05 | 28.54651 | 77.08576 | 949 ft | 194 kts | 102° |
| 2026-04-29 09:05 | 28.54348 | 77.10129 | 1934 ft | 208 kts | 102° |
| 2026-04-29 09:05 | 28.53945 | 77.11692 | 2945 ft | 214 kts | 111° |
| 2026-04-29 09:06 | 28.53132 | 77.13213 | 3202 ft | 243 kts | 140° |
| 2026-04-29 09:06 | 28.51554 | 77.13975 | 3774 ft | 255 kts | 172° |
| 2026-04-29 09:06 | 28.49771 | 77.14133 | 4651 ft | 259 kts | 179° |
| 2026-04-29 09:06 | 28.47948 | 77.14189 | 5533 ft | 267 kts | 180° |
| 2026-04-29 09:07 | 28.46045 | 77.14250 | 6268 ft | 276 kts | 179° |
| 2026-04-29 09:07 | 28.44126 | 77.14322 | 6671 ft | 278 kts | 179° |
| 2026-04-29 09:07 | 28.42182 | 77.14419 | 6755 ft | 286 kts | 178° |
| 2026-04-29 09:07 | 28.40187 | 77.14530 | 7535 ft | 288 kts | 178° |
| 2026-04-29 09:08 | 28.38186 | 77.14648 | 8624 ft | 289 kts | 179° |
| 2026-04-29 09:08 | 28.36173 | 77.14774 | 9651 ft | 292 kts | 179° |
| 2026-04-29 09:08 | 28.34110 | 77.14905 | 10369 ft | 306 kts | 180° |
| 2026-04-29 09:08 | 28.31871 | 77.15044 | 10629 ft | 337 kts | 180° |
| 2026-04-29 09:09 | 28.29434 | 77.15164 | 10818 ft | 361 kts | 184° |
| 2026-04-29 09:09 | 28.26958 | 77.14613 | 11238 ft | 367 kts | 202° |
| 2026-04-29 09:09 | 28.24526 | 77.13587 | 11972 ft | 376 kts | 203° |
| 2026-04-29 09:09 | 28.22067 | 77.12534 | 12962 ft | 379 kts | 203° |
| 2026-04-29 09:10 | 28.19591 | 77.11484 | 13918 ft | 382 kts | 203° |
| 2026-04-29 09:10 | 28.17086 | 77.10434 | 14768 ft | 386 kts | 203° |
| 2026-04-29 09:10 | 28.14552 | 77.09384 | 15604 ft | 390 kts | 204° |
| 2026-04-29 09:10 | 28.11978 | 77.08325 | 16440 ft | 395 kts | 204° |
| 2026-04-29 09:11 | 28.09378 | 77.07261 | 17261 ft | 400 kts | 204° |
| 2026-04-29 09:11 | 28.06748 | 77.06188 | 18056 ft | 404 kts | 204° |
| 2026-04-29 09:11 | 28.04091 | 77.05107 | 18713 ft | 409 kts | 204° |
| 2026-04-29 09:11 | 28.01429 | 77.04024 | 19322 ft | 415 kts | 204° |
| 2026-04-29 09:12 | 27.98694 | 77.02913 | 19983 ft | 420 kts | 204° |
| 2026-04-29 09:12 | 27.95931 | 77.01792 | 20661 ft | 424 kts | 204° |
| 2026-04-29 09:12 | 27.93137 | 77.00659 | 21323 ft | 429 kts | 204° |
| 2026-04-29 09:12 | 27.90359 | 76.99533 | 21989 ft | 433 kts | 204° |
| 2026-04-29 09:13 | 27.87509 | 76.98378 | 22625 ft | 438 kts | 204° |
| 2026-04-29 09:13 | 27.84620 | 76.97207 | 23249 ft | 443 kts | 204° |
| 2026-04-29 09:13 | 27.81703 | 76.96026 | 23781 ft | 447 kts | 204° |
| 2026-04-29 09:13 | 27.78767 | 76.94839 | 24371 ft | 449 kts | 203° |
| 2026-04-29 09:14 | 27.75809 | 76.93644 | 24990 ft | 452 kts | 203° |
| 2026-04-29 09:14 | 27.72840 | 76.92445 | 25584 ft | 455 kts | 203° |
| 2026-04-29 09:14 | 27.69852 | 76.91238 | 26165 ft | 458 kts | 203° |
| 2026-04-29 09:14 | 27.66841 | 76.90022 | 26711 ft | 461 kts | 202° |
| 2026-04-29 09:15 | 27.63805 | 76.88798 | 27277 ft | 465 kts | 202° |
| 2026-04-29 09:15 | 27.60748 | 76.87565 | 27830 ft | 468 kts | 202° |
| 2026-04-29 09:15 | 27.57673 | 76.86326 | 28377 ft | 471 kts | 203° |
| 2026-04-29 09:15 | 27.54570 | 76.85077 | 28836 ft | 476 kts | 203° |
| 2026-04-29 09:16 | 27.51428 | 76.83812 | 29334 ft | 480 kts | 203° |
| 2026-04-29 09:16 | 27.48275 | 76.82543 | 29837 ft | 483 kts | 202° |
| 2026-04-29 09:16 | 27.45092 | 76.81263 | 30227 ft | 486 kts | 203° |
| 2026-04-29 09:16 | 27.41893 | 76.79979 | 30559 ft | 490 kts | 203° |
| 2026-04-29 09:17 | 27.38659 | 76.78854 | 30962 ft | 494 kts | 199° |
| 2026-04-29 09:17 | 27.35316 | 76.77919 | 31448 ft | 495 kts | 197° |
| 2026-04-29 09:17 | 27.31947 | 76.77078 | 31913 ft | 496 kts | 197° |
| 2026-04-29 09:17 | 27.28564 | 76.76254 | 32352 ft | 497 kts | 197° |
| 2026-04-29 09:18 | 27.25185 | 76.75417 | 32792 ft | 497 kts | 198° |
| 2026-04-29 09:18 | 27.21809 | 76.74555 | 33200 ft | 498 kts | 198° |
| 2026-04-29 09:18 | 27.18434 | 76.73670 | 33633 ft | 498 kts | 199° |
| 2026-04-29 09:18 | 27.15061 | 76.72772 | 33993 ft | 499 kts | 199° |
| 2026-04-29 09:19 | 27.11679 | 76.71864 | 34223 ft | 502 kts | 199° |
| 2026-04-29 09:19 | 27.08272 | 76.70947 | 34462 ft | 504 kts | 199° |
| 2026-04-29 09:19 | 27.04853 | 76.70030 | 34798 ft | 505 kts | 199° |
| 2026-04-29 09:19 | 27.01434 | 76.69115 | 35139 ft | 505 kts | 200° |
| 2026-04-29 09:20 | 26.98013 | 76.68202 | 35443 ft | 506 kts | 200° |
| 2026-04-29 09:20 | 26.94581 | 76.67286 | 35734 ft | 507 kts | 200° |
| 2026-04-29 09:20 | 26.91150 | 76.66372 | 36034 ft | 508 kts | 200° |
| 2026-04-29 09:20 | 26.87707 | 76.65456 | 36329 ft | 509 kts | 200° |
| 2026-04-29 09:21 | 26.84301 | 76.64549 | 36595 ft | 510 kts | 200° |
| 2026-04-29 09:21 | 26.77334 | 76.62694 | 36670 ft | 516 kts | 200° |
| 2026-04-29 09:22 | 26.70378 | 76.60854 | 36679 ft | 510 kts | 200° |
| 2026-04-29 09:22 | 26.63487 | 76.59027 | 36686 ft | 508 kts | 200° |
| 2026-04-29 09:23 | 26.56610 | 76.57202 | 36688 ft | 507 kts | 200° |
| 2026-04-29 09:23 | 26.49731 | 76.55380 | 36677 ft | 508 kts | 200° |
| 2026-04-29 09:24 | 26.42848 | 76.53565 | 36688 ft | 509 kts | 200° |
| 2026-04-29 09:24 | 26.35983 | 76.51766 | 36689 ft | 510 kts | 200° |
| 2026-04-29 09:25 | 26.29049 | 76.49954 | 36669 ft | 512 kts | 200° |
| 2026-04-29 09:25 | 26.22110 | 76.48140 | 36676 ft | 513 kts | 200° |
| 2026-04-29 09:26 | 26.15148 | 76.46321 | 36688 ft | 514 kts | 200° |
| 2026-04-29 09:26 | 26.08178 | 76.44503 | 36703 ft | 514 kts | 200° |
| 2026-04-29 09:27 | 26.01201 | 76.42685 | 36697 ft | 515 kts | 200° |
| 2026-04-29 09:27 | 25.94195 | 76.41006 | 36699 ft | 520 kts | 193° |
| 2026-04-29 09:28 | 25.86916 | 76.41221 | 36713 ft | 535 kts | 175° |
| 2026-04-29 09:28 | 25.79710 | 76.43537 | 36724 ft | 541 kts | 165° |
| 2026-04-29 09:29 | 25.72585 | 76.46239 | 36709 ft | 541 kts | 165° |
| 2026-04-29 09:29 | 25.61865 | 76.50152 | 36699 ft | 540 kts | 166° |
| 2026-04-29 09:30 | 25.54714 | 76.52690 | 36717 ft | 541 kts | 166° |
| 2026-04-29 09:30 | 25.47545 | 76.55231 | 36730 ft | 541 kts | 166° |
| 2026-04-29 09:31 | 25.40362 | 76.57781 | 36741 ft | 542 kts | 166° |
| 2026-04-29 09:31 | 25.33169 | 76.60335 | 36732 ft | 542 kts | 166° |
| 2026-04-29 09:32 | 25.25981 | 76.62884 | 36733 ft | 543 kts | 166° |
| 2026-04-29 09:32 | 25.18787 | 76.65431 | 36743 ft | 543 kts | 166° |
| 2026-04-29 09:33 | 25.11630 | 76.67963 | 36739 ft | 543 kts | 166° |
| 2026-04-29 09:33 | 25.04428 | 76.70507 | 36741 ft | 543 kts | 166° |
| 2026-04-29 09:34 | 24.97234 | 76.73052 | 36739 ft | 543 kts | 165° |
| 2026-04-29 09:34 | 24.90042 | 76.75638 | 36741 ft | 543 kts | 165° |
| 2026-04-29 09:35 | 24.82859 | 76.78228 | 36745 ft | 543 kts | 165° |
| 2026-04-29 09:35 | 24.75683 | 76.80806 | 36740 ft | 542 kts | 165° |
| 2026-04-29 09:36 | 24.68508 | 76.83377 | 36743 ft | 542 kts | 165° |
| 2026-04-29 09:36 | 24.61322 | 76.85948 | 36740 ft | 542 kts | 165° |
| 2026-04-29 09:37 | 24.54140 | 76.88516 | 36747 ft | 542 kts | 165° |
| 2026-04-29 09:37 | 24.47012 | 76.91062 | 36738 ft | 542 kts | 165° |
| 2026-04-29 09:38 | 24.39832 | 76.93624 | 36734 ft | 542 kts | 165° |
| 2026-04-29 09:38 | 24.32663 | 76.96213 | 36739 ft | 543 kts | 165° |
| 2026-04-29 09:39 | 24.25476 | 76.98822 | 36748 ft | 543 kts | 165° |
| 2026-04-29 09:39 | 24.18333 | 77.01409 | 36736 ft | 543 kts | 165° |
| 2026-04-29 09:40 | 24.11147 | 77.04004 | 36728 ft | 543 kts | 165° |
| 2026-04-29 09:40 | 24.03972 | 77.06591 | 36741 ft | 543 kts | 165° |
| 2026-04-29 09:41 | 23.96787 | 77.09179 | 36737 ft | 544 kts | 165° |
| 2026-04-29 09:41 | 23.89583 | 77.11770 | 36739 ft | 544 kts | 165° |
| 2026-04-29 09:42 | 23.82397 | 77.14353 | 36729 ft | 544 kts | 165° |
| 2026-04-29 09:42 | 23.75213 | 77.16932 | 36738 ft | 542 kts | 165° |
| 2026-04-29 09:43 | 23.68049 | 77.19500 | 36742 ft | 541 kts | 165° |
| 2026-04-29 09:43 | 23.60895 | 77.22062 | 36745 ft | 540 kts | 165° |
| 2026-04-29 09:44 | 23.53782 | 77.24606 | 36733 ft | 540 kts | 165° |
| 2026-04-29 09:44 | 23.46652 | 77.27154 | 36745 ft | 538 kts | 165° |
| 2026-04-29 09:45 | 23.39546 | 77.29691 | 36747 ft | 537 kts | 165° |
| 2026-04-29 09:45 | 23.32451 | 77.32221 | 36745 ft | 536 kts | 165° |
| 2026-04-29 09:46 | 23.25290 | 77.34415 | 36748 ft | 532 kts | 173° |
| 2026-04-29 09:46 | 23.18014 | 77.35830 | 36747 ft | 530 kts | 174° |
| 2026-04-29 09:47 | 23.10727 | 77.37195 | 36738 ft | 531 kts | 173° |
| 2026-04-29 09:47 | 23.03479 | 77.38597 | 36756 ft | 531 kts | 173° |
| 2026-04-29 09:48 | 22.96202 | 77.40033 | 36738 ft | 532 kts | 173° |
| 2026-04-29 09:48 | 22.88896 | 77.41479 | 36743 ft | 532 kts | 173° |
| 2026-04-29 09:49 | 22.82833 | 77.42675 | 36747 ft | 533 kts | 173° |
| 2026-04-29 09:49 | 22.74295 | 77.44354 | 36745 ft | 533 kts | 173° |
| 2026-04-29 09:50 | 22.68224 | 77.45546 | 36744 ft | 534 kts | 173° |
| 2026-04-29 09:50 | 22.60904 | 77.46982 | 36737 ft | 534 kts | 173° |
| 2026-04-29 09:51 | 22.53602 | 77.48414 | 36745 ft | 533 kts | 173° |
| 2026-04-29 09:51 | 22.46355 | 77.49833 | 36754 ft | 532 kts | 173° |
| 2026-04-29 09:52 | 22.39068 | 77.51259 | 36754 ft | 532 kts | 173° |
| 2026-04-29 09:52 | 22.31788 | 77.52681 | 36757 ft | 531 kts | 173° |
| 2026-04-29 09:53 | 22.24518 | 77.54100 | 36752 ft | 530 kts | 173° |
| 2026-04-29 09:53 | 22.17256 | 77.55517 | 36760 ft | 530 kts | 173° |
| 2026-04-29 09:54 | 22.10007 | 77.56929 | 36767 ft | 529 kts | 173° |
| 2026-04-29 09:54 | 22.02767 | 77.58322 | 36762 ft | 528 kts | 173° |
| 2026-04-29 09:55 | 21.95542 | 77.59707 | 36777 ft | 527 kts | 173° |
| 2026-04-29 09:55 | 21.88308 | 77.61094 | 36770 ft | 527 kts | 173° |
| 2026-04-29 09:56 | 21.81092 | 77.62479 | 36775 ft | 527 kts | 173° |
| 2026-04-29 09:56 | 21.73877 | 77.63862 | 36775 ft | 527 kts | 173° |
| 2026-04-29 09:57 | 21.66707 | 77.65235 | 36772 ft | 527 kts | 173° |
| 2026-04-29 09:57 | 21.59492 | 77.66615 | 36762 ft | 527 kts | 173° |
| 2026-04-29 09:58 | 21.52269 | 77.67995 | 36757 ft | 527 kts | 173° |
| 2026-04-29 09:58 | 21.45057 | 77.69418 | 36761 ft | 527 kts | 172° |
| 2026-04-29 09:59 | 21.37857 | 77.70900 | 36761 ft | 527 kts | 172° |
| 2026-04-29 09:59 | 21.30637 | 77.72383 | 36749 ft | 527 kts | 172° |
| 2026-04-29 10:00 | 21.23416 | 77.73852 | 36759 ft | 528 kts | 172° |
| 2026-04-29 10:00 | 21.16195 | 77.75316 | 36744 ft | 528 kts | 172° |
| 2026-04-29 10:01 | 21.08971 | 77.76780 | 36741 ft | 528 kts | 172° |
| 2026-04-29 10:01 | 21.01787 | 77.78235 | 36730 ft | 528 kts | 172° |
| 2026-04-29 10:02 | 20.94581 | 77.79693 | 36738 ft | 527 kts | 172° |
| 2026-04-29 10:02 | 20.87370 | 77.81152 | 36728 ft | 527 kts | 172° |
| 2026-04-29 10:03 | 20.80170 | 77.82606 | 36735 ft | 526 kts | 172° |
| 2026-04-29 10:03 | 20.72982 | 77.84056 | 36738 ft | 525 kts | 172° |
| 2026-04-29 10:04 | 20.65798 | 77.85496 | 36737 ft | 524 kts | 173° |
| 2026-04-29 10:04 | 20.58613 | 77.86886 | 36740 ft | 524 kts | 173° |
| 2026-04-29 10:05 | 20.51436 | 77.88260 | 36742 ft | 524 kts | 173° |
| 2026-04-29 10:05 | 20.44265 | 77.89640 | 36754 ft | 523 kts | 173° |
| 2026-04-29 10:06 | 20.37098 | 77.91022 | 36745 ft | 523 kts | 173° |
| 2026-04-29 10:06 | 20.29933 | 77.92403 | 36753 ft | 523 kts | 173° |
| 2026-04-29 10:07 | 20.22780 | 77.93781 | 36755 ft | 522 kts | 173° |
| 2026-04-29 10:07 | 20.15672 | 77.95148 | 36758 ft | 522 kts | 173° |
| 2026-04-29 10:08 | 20.08514 | 77.96524 | 36759 ft | 522 kts | 173° |
| 2026-04-29 10:08 | 20.01362 | 77.97897 | 36750 ft | 522 kts | 173° |
| 2026-04-29 10:09 | 19.94223 | 77.99266 | 36756 ft | 521 kts | 173° |
| 2026-04-29 10:09 | 19.87162 | 78.00619 | 36765 ft | 521 kts | 173° |
| 2026-04-29 10:10 | 19.80024 | 78.01986 | 36759 ft | 521 kts | 173° |
| 2026-04-29 10:10 | 19.72883 | 78.03352 | 36752 ft | 521 kts | 172° |
| 2026-04-29 10:11 | 19.65747 | 78.04716 | 36775 ft | 520 kts | 172° |
| 2026-04-29 10:11 | 19.58610 | 78.06079 | 36781 ft | 520 kts | 172° |
| 2026-04-29 10:12 | 19.51532 | 78.07429 | 36781 ft | 520 kts | 172° |
| 2026-04-29 10:12 | 19.44415 | 78.08786 | 36786 ft | 520 kts | 172° |
| 2026-04-29 10:13 | 19.37296 | 78.10141 | 36788 ft | 519 kts | 172° |
| 2026-04-29 10:13 | 19.30191 | 78.11494 | 36787 ft | 518 kts | 172° |
| 2026-04-29 10:14 | 19.23091 | 78.12828 | 36788 ft | 517 kts | 174° |
| 2026-04-29 10:14 | 19.15974 | 78.13868 | 36790 ft | 516 kts | 176° |
| 2026-04-29 10:15 | 19.08844 | 78.14789 | 36785 ft | 515 kts | 176° |
| 2026-04-29 10:15 | 19.01726 | 78.15743 | 36789 ft | 515 kts | 175° |
| 2026-04-29 10:16 | 18.95826 | 78.16562 | 36791 ft | 514 kts | 175° |
| 2026-04-29 10:16 | 18.87573 | 78.17721 | 36799 ft | 514 kts | 175° |
| 2026-04-29 10:17 | 18.80474 | 78.18715 | 36797 ft | 514 kts | 175° |
| 2026-04-29 10:17 | 18.73383 | 78.19705 | 36794 ft | 514 kts | 175° |
| 2026-04-29 10:18 | 18.66295 | 78.20692 | 36803 ft | 513 kts | 175° |
| 2026-04-29 10:18 | 18.59258 | 78.21672 | 36814 ft | 512 kts | 175° |
| 2026-04-29 10:19 | 18.52192 | 78.22656 | 36807 ft | 512 kts | 175° |
| 2026-04-29 10:19 | 18.45133 | 78.23637 | 36821 ft | 512 kts | 175° |
| 2026-04-29 10:20 | 18.38068 | 78.24618 | 36822 ft | 511 kts | 175° |
| 2026-04-29 10:20 | 18.31014 | 78.25597 | 36822 ft | 511 kts | 175° |
| 2026-04-29 10:21 | 18.23959 | 78.26576 | 36821 ft | 511 kts | 175° |
| 2026-04-29 10:21 | 18.16901 | 78.27554 | 36824 ft | 511 kts | 175° |
| 2026-04-29 10:22 | 18.09837 | 78.28532 | 36820 ft | 512 kts | 175° |
| 2026-04-29 10:22 | 18.02772 | 78.29510 | 36826 ft | 511 kts | 175° |
| 2026-04-29 10:23 | 17.95725 | 78.30489 | 36825 ft | 511 kts | 175° |
| 2026-04-29 10:23 | 17.88684 | 78.31473 | 36834 ft | 510 kts | 175° |
| 2026-04-29 10:24 | 17.81696 | 78.32448 | 36832 ft | 509 kts | 175° |
| 2026-04-29 10:24 | 17.74672 | 78.33427 | 36840 ft | 509 kts | 175° |
| 2026-04-29 10:25 | 17.67662 | 78.34402 | 36840 ft | 508 kts | 175° |
| 2026-04-29 10:25 | 17.60663 | 78.35375 | 36855 ft | 506 kts | 175° |
| 2026-04-29 10:26 | 17.53679 | 78.36345 | 36826 ft | 506 kts | 175° |
| 2026-04-29 10:26 | 17.46701 | 78.37314 | 36821 ft | 505 kts | 175° |
| 2026-04-29 10:27 | 17.36254 | 78.38764 | 36829 ft | 504 kts | 175° |
| 2026-04-29 10:28 | 17.29297 | 78.39728 | 36856 ft | 504 kts | 175° |
| 2026-04-29 10:28 | 17.22346 | 78.40688 | 36861 ft | 503 kts | 175° |
| 2026-04-29 10:29 | 17.15437 | 78.41480 | 36861 ft | 502 kts | 177° |
| 2026-04-29 10:29 | 17.08469 | 78.42185 | 36869 ft | 502 kts | 177° |
| 2026-04-29 10:30 | 17.01505 | 78.42904 | 36868 ft | 502 kts | 177° |
| 2026-04-29 10:30 | 16.94558 | 78.43643 | 36876 ft | 502 kts | 177° |
| 2026-04-29 10:31 | 16.87605 | 78.44390 | 36882 ft | 502 kts | 177° |
| 2026-04-29 10:31 | 16.80657 | 78.45134 | 36877 ft | 502 kts | 177° |
| 2026-04-29 10:32 | 16.73708 | 78.45877 | 36873 ft | 502 kts | 177° |
| 2026-04-29 10:32 | 16.66758 | 78.46618 | 36858 ft | 502 kts | 177° |
| 2026-04-29 10:33 | 16.59809 | 78.47359 | 36865 ft | 501 kts | 177° |
| 2026-04-29 10:33 | 16.52906 | 78.48095 | 36850 ft | 501 kts | 177° |
| 2026-04-29 10:34 | 16.45963 | 78.48835 | 36850 ft | 501 kts | 177° |
| 2026-04-29 10:34 | 16.40200 | 78.49448 | 36843 ft | 501 kts | 177° |
| 2026-04-29 10:35 | 16.32109 | 78.50309 | 36848 ft | 499 kts | 177° |
| 2026-04-29 10:35 | 16.26366 | 78.50919 | 36841 ft | 498 kts | 177° |
| 2026-04-29 10:36 | 16.18375 | 78.51116 | 36835 ft | 491 kts | 188° |
| 2026-04-29 10:36 | 16.12745 | 78.50285 | 36839 ft | 488 kts | 193° |
| 2026-04-29 10:37 | 16.06029 | 78.49140 | 36831 ft | 488 kts | 193° |
| 2026-04-29 10:37 | 15.99325 | 78.48023 | 36818 ft | 488 kts | 192° |
| 2026-04-29 10:38 | 15.92653 | 78.46942 | 36823 ft | 488 kts | 192° |
| 2026-04-29 10:38 | 15.85944 | 78.45865 | 36815 ft | 488 kts | 192° |
| 2026-04-29 10:39 | 15.79236 | 78.44788 | 36816 ft | 488 kts | 192° |
| 2026-04-29 10:39 | 15.72526 | 78.43709 | 36802 ft | 488 kts | 192° |
| 2026-04-29 10:40 | 15.65805 | 78.42629 | 36798 ft | 488 kts | 192° |
| 2026-04-29 10:40 | 15.59081 | 78.41550 | 36795 ft | 488 kts | 192° |
| 2026-04-29 10:41 | 15.52354 | 78.40471 | 36795 ft | 489 kts | 192° |
| 2026-04-29 10:41 | 15.45632 | 78.39393 | 36786 ft | 489 kts | 192° |
| 2026-04-29 10:42 | 15.38908 | 78.38315 | 36786 ft | 489 kts | 192° |
| 2026-04-29 10:42 | 15.32187 | 78.37239 | 36776 ft | 488 kts | 192° |
| 2026-04-29 10:43 | 15.25522 | 78.36172 | 36778 ft | 487 kts | 192° |
| 2026-04-29 10:43 | 15.18876 | 78.35113 | 36257 ft | 475 kts | 192° |
| 2026-04-29 10:43 | 15.15674 | 78.34603 | 35820 ft | 470 kts | 192° |
| 2026-04-29 10:44 | 15.12454 | 78.34090 | 35365 ft | 466 kts | 192° |
| 2026-04-29 10:44 | 15.09214 | 78.33573 | 34881 ft | 463 kts | 193° |
| 2026-04-29 10:44 | 15.06035 | 78.33065 | 34397 ft | 461 kts | 193° |
| 2026-04-29 10:44 | 15.02914 | 78.32567 | 33931 ft | 458 kts | 193° |
| 2026-04-29 10:45 | 14.99779 | 78.32067 | 33409 ft | 455 kts | 193° |
| 2026-04-29 10:45 | 14.96652 | 78.31568 | 32908 ft | 452 kts | 193° |
| 2026-04-29 10:45 | 14.93551 | 78.31074 | 32451 ft | 448 kts | 193° |
| 2026-04-29 10:45 | 14.90472 | 78.30584 | 31977 ft | 445 kts | 193° |
| 2026-04-29 10:46 | 14.87430 | 78.30099 | 31521 ft | 441 kts | 193° |
| 2026-04-29 10:46 | 14.84406 | 78.29617 | 31072 ft | 438 kts | 193° |
| 2026-04-29 10:46 | 14.81404 | 78.29139 | 30625 ft | 435 kts | 194° |
| 2026-04-29 10:46 | 14.78415 | 78.28662 | 30172 ft | 432 kts | 194° |
| 2026-04-29 10:47 | 14.75452 | 78.28187 | 29710 ft | 430 kts | 194° |
| 2026-04-29 10:47 | 14.72500 | 78.27713 | 29175 ft | 428 kts | 194° |
| 2026-04-29 10:47 | 14.69566 | 78.27242 | 28709 ft | 424 kts | 194° |
| 2026-04-29 10:47 | 14.66696 | 78.26781 | 28265 ft | 421 kts | 194° |
| 2026-04-29 10:48 | 14.63810 | 78.26319 | 27804 ft | 418 kts | 193° |
| 2026-04-29 10:48 | 14.60950 | 78.25861 | 27347 ft | 414 kts | 193° |
| 2026-04-29 10:48 | 14.58108 | 78.25405 | 26923 ft | 411 kts | 193° |
| 2026-04-29 10:48 | 14.55291 | 78.24954 | 26526 ft | 408 kts | 193° |
| 2026-04-29 10:49 | 14.52493 | 78.24506 | 26097 ft | 406 kts | 193° |
| 2026-04-29 10:49 | 14.49715 | 78.24061 | 25679 ft | 403 kts | 193° |
| 2026-04-29 10:49 | 14.46954 | 78.23618 | 25262 ft | 401 kts | 193° |
| 2026-04-29 10:49 | 14.44202 | 78.23177 | 24841 ft | 399 kts | 193° |
| 2026-04-29 10:50 | 14.41464 | 78.22739 | 24401 ft | 397 kts | 192° |
| 2026-04-29 10:50 | 14.38736 | 78.22303 | 23996 ft | 395 kts | 192° |
| 2026-04-29 10:50 | 14.36023 | 78.21868 | 23581 ft | 394 kts | 192° |
| 2026-04-29 10:50 | 14.33319 | 78.21435 | 23128 ft | 392 kts | 192° |
| 2026-04-29 10:51 | 14.30623 | 78.21005 | 22682 ft | 390 kts | 192° |
| 2026-04-29 10:51 | 14.27946 | 78.20577 | 22253 ft | 387 kts | 192° |
| 2026-04-29 10:51 | 14.25288 | 78.20152 | 21834 ft | 385 kts | 191° |
| 2026-04-29 10:51 | 14.22647 | 78.19731 | 21420 ft | 383 kts | 191° |
| 2026-04-29 10:52 | 14.20020 | 78.19311 | 21021 ft | 380 kts | 191° |
| 2026-04-29 10:52 | 14.17409 | 78.18893 | 20623 ft | 379 kts | 192° |
| 2026-04-29 10:52 | 14.14876 | 78.18239 | 20206 ft | 373 kts | 204° |
| 2026-04-29 10:52 | 14.12550 | 78.17175 | 19827 ft | 370 kts | 208° |
| 2026-04-29 10:53 | 14.10235 | 78.16016 | 19407 ft | 369 kts | 208° |
| 2026-04-29 10:53 | 14.07932 | 78.14849 | 19001 ft | 369 kts | 208° |
| 2026-04-29 10:53 | 14.05622 | 78.13693 | 18606 ft | 369 kts | 208° |
| 2026-04-29 10:53 | 14.03298 | 78.12548 | 18195 ft | 370 kts | 207° |
| 2026-04-29 10:54 | 14.00965 | 78.11412 | 17726 ft | 370 kts | 207° |
| 2026-04-29 10:54 | 13.98637 | 78.10289 | 17322 ft | 370 kts | 207° |
| 2026-04-29 10:54 | 13.96311 | 78.09171 | 16906 ft | 369 kts | 206° |
| 2026-04-29 10:54 | 13.93985 | 78.08056 | 16487 ft | 368 kts | 206° |
| 2026-04-29 10:55 | 13.91662 | 78.06944 | 16092 ft | 367 kts | 206° |
| 2026-04-29 10:55 | 13.89352 | 78.05839 | 15685 ft | 366 kts | 206° |
| 2026-04-29 10:55 | 13.87048 | 78.04737 | 15285 ft | 365 kts | 205° |
| 2026-04-29 10:55 | 13.84746 | 78.03635 | 14867 ft | 364 kts | 205° |
| 2026-04-29 10:56 | 13.82445 | 78.02535 | 14462 ft | 364 kts | 205° |
| 2026-04-29 10:56 | 13.80147 | 78.01436 | 14054 ft | 364 kts | 204° |
| 2026-04-29 10:56 | 13.77855 | 78.00340 | 13671 ft | 362 kts | 204° |
| 2026-04-29 10:56 | 13.75597 | 77.99260 | 13513 ft | 354 kts | 204° |
| 2026-04-29 10:57 | 13.73420 | 77.98220 | 13353 ft | 346 kts | 204° |
| 2026-04-29 10:57 | 13.71259 | 77.97188 | 13195 ft | 338 kts | 204° |
| 2026-04-29 10:57 | 13.69150 | 77.96181 | 13057 ft | 330 kts | 204° |
| 2026-04-29 10:57 | 13.67095 | 77.95199 | 12920 ft | 322 kts | 203° |
| 2026-04-29 10:58 | 13.65119 | 77.94169 | 12799 ft | 313 kts | 210° |
| 2026-04-29 10:58 | 13.63321 | 77.92997 | 12729 ft | 301 kts | 212° |
| 2026-04-29 10:58 | 13.61600 | 77.91813 | 12478 ft | 294 kts | 213° |
| 2026-04-29 10:58 | 13.59912 | 77.90655 | 12194 ft | 289 kts | 212° |
| 2026-04-29 10:59 | 13.58241 | 77.89524 | 11854 ft | 286 kts | 212° |
| 2026-04-29 10:59 | 13.56581 | 77.88411 | 11528 ft | 283 kts | 212° |
| 2026-04-29 10:59 | 13.54933 | 77.87313 | 11190 ft | 281 kts | 211° |
| 2026-04-29 10:59 | 13.53290 | 77.86225 | 10851 ft | 279 kts | 211° |
| 2026-04-29 11:00 | 13.51666 | 77.85151 | 10515 ft | 276 kts | 210° |
| 2026-04-29 11:00 | 13.50058 | 77.84089 | 10198 ft | 273 kts | 211° |
| 2026-04-29 11:00 | 13.48448 | 77.83149 | 9873 ft | 265 kts | 193° |
| 2026-04-29 11:00 | 13.46683 | 77.83133 | 9478 ft | 252 kts | 156° |
| 2026-04-29 11:01 | 13.45348 | 77.84189 | 9153 ft | 241 kts | 124° |
| 2026-04-29 11:01 | 13.44396 | 77.85594 | 8834 ft | 241 kts | 123° |
| 2026-04-29 11:01 | 13.43388 | 77.87015 | 8403 ft | 245 kts | 126° |
| 2026-04-29 11:01 | 13.42316 | 77.88379 | 8018 ft | 245 kts | 129° |
| 2026-04-29 11:02 | 13.41192 | 77.89647 | 7716 ft | 242 kts | 133° |
| 2026-04-29 11:02 | 13.39985 | 77.90856 | 7362 ft | 241 kts | 136° |
| 2026-04-29 11:02 | 13.38715 | 77.91980 | 7035 ft | 239 kts | 140° |
| 2026-04-29 11:02 | 13.37401 | 77.93012 | 6707 ft | 237 kts | 143° |
| 2026-04-29 11:03 | 13.36051 | 77.93948 | 6457 ft | 231 kts | 146° |
| 2026-04-29 11:03 | 13.34674 | 77.94790 | 6228 ft | 231 kts | 150° |
| 2026-04-29 11:03 | 13.33249 | 77.95556 | 5985 ft | 232 kts | 153° |
| 2026-04-29 11:03 | 13.31791 | 77.96230 | 5886 ft | 228 kts | 156° |
| 2026-04-29 11:04 | 13.30320 | 77.96809 | 5853 ft | 230 kts | 159° |
| 2026-04-29 11:04 | 13.28783 | 77.97315 | 5805 ft | 232 kts | 162° |
| 2026-04-29 11:04 | 13.27226 | 77.97750 | 5813 ft | 232 kts | 164° |
| 2026-04-29 11:04 | 13.25642 | 77.98109 | 5803 ft | 234 kts | 168° |
| 2026-04-29 11:05 | 13.24030 | 77.98352 | 5799 ft | 234 kts | 173° |
| 2026-04-29 11:05 | 13.22446 | 77.98146 | 5785 ft | 233 kts | 204° |
| 2026-04-29 11:05 | 13.21232 | 77.97082 | 5790 ft | 232 kts | 238° |
| 2026-04-29 11:05 | 13.20761 | 77.95542 | 5825 ft | 229 kts | 262° |
| 2026-04-29 11:06 | 13.20647 | 77.93906 | 5839 ft | 232 kts | 267° |
| 2026-04-29 11:06 | 13.20629 | 77.92270 | 5819 ft | 225 kts | 269° |
| 2026-04-29 11:06 | 13.20637 | 77.90684 | 5826 ft | 221 kts | 268° |
| 2026-04-29 11:06 | 13.20644 | 77.89110 | 5890 ft | 219 kts | 270° |
| 2026-04-29 11:07 | 13.20653 | 77.87545 | 5757 ft | 221 kts | 270° |
| 2026-04-29 11:07 | 13.20659 | 77.85980 | 5480 ft | 215 kts | 270° |
| 2026-04-29 11:07 | 13.20664 | 77.84500 | 5206 ft | 199 kts | 270° |
| 2026-04-29 11:07 | 13.20669 | 77.83132 | 4960 ft | 184 kts | 270° |
| 2026-04-29 11:08 | 13.20673 | 77.81856 | 4749 ft | 178 kts | 270° |
| 2026-04-29 11:08 | 13.20677 | 77.80587 | 4502 ft | 176 kts | 270° |
| 2026-04-29 11:08 | 13.20681 | 77.79344 | 4271 ft | 173 kts | 270° |
| 2026-04-29 11:08 | 13.20686 | 77.78121 | 4062 ft | 168 kts | 270° |
| 2026-04-29 11:09 | 13.20690 | 77.76960 | 3862 ft | 158 kts | 269° |
| 2026-04-29 11:09 | 13.20693 | 77.75859 | 3665 ft | 155 kts | 270° |
| 2026-04-29 11:09 | 13.20697 | 77.74755 | 3446 ft | 153 kts | 269° |
| 2026-04-29 11:09 | 13.20689 | 77.73663 | 3331 ft | 152 kts | 266° |
| 2026-04-29 11:10 | 13.20686 | 77.72571 | 3127 ft | 154 kts | 268° |
| 2026-04-29 11:10 | 13.20691 | 77.71499 | 3016 ft | 141 kts | 275° |
| 2026-04-29 11:10 | 13.20704 | 77.70582 | 3016 ft | 116 kts | 270° |
| 2026-04-29 11:10 | 13.20683 | 77.70119 | 3016 ft | 42 kts | 251° |
| 2026-04-29 11:11 | 13.20609 | 77.69956 | 3016 ft | 11 kts | 240° |
| 2026-04-29 11:11 | 13.20581 | 77.69909 | 3016 ft | 2 kts | 239° |
| 2026-04-29 11:11 | 13.20572 | 77.69893 | 3016 ft | 3 kts | 241° |
| 2026-04-29 11:11 | 13.20551 | 77.69853 | 3016 ft | 15 kts | 242° |
| 2026-04-29 11:12 | 13.20538 | 77.69700 | 3016 ft | 25 kts | 271° |
| 2026-04-29 11:12 | 13.20540 | 77.69521 | 3015 ft | 24 kts | 270° |
| 2026-04-29 11:12 | 13.20539 | 77.69370 | 3015 ft | 19 kts | 255° |
| 2026-04-29 11:12 | 13.20446 | 77.69333 | 3015 ft | 14 kts | 180° |
| 2026-04-29 11:13 | 13.20349 | 77.69332 | 3016 ft | 14 kts | 181° |
| 2026-04-29 11:13 | 13.20278 | 77.69363 | 3016 ft | 10 kts | 109° |
| 2026-04-29 11:13 | 13.20275 | 77.69432 | 3016 ft | 10 kts | 91° |
| 2026-04-29 11:13 | 13.20275 | 77.69500 | 3016 ft | 10 kts | 90° |
| 2026-04-29 11:14 | 13.20270 | 77.69565 | 3016 ft | 7 kts | 118° |
| 2026-04-29 11:14 | 13.20221 | 77.69575 | 3016 ft | 8 kts | 178° |
| 2026-04-29 11:14 | 13.20184 | 77.69575 | 3016 ft | 0 kts | 180° |